createdAt,value
2022-12-01T00:00:56.467Z,26.73
2022-12-01T00:03:58.897Z,28.50
2022-12-01T00:07:05.888Z,33.30
2022-12-01T00:10:26.322Z,35.50
2022-12-01T00:13:28.946Z,32.95
2022-12-01T00:16:31.896Z,31.70
2022-12-01T00:19:34.397Z,29.42
2022-12-01T00:22:36.791Z,27.20
2022-12-01T00:25:39.154Z,24.38
2022-12-01T00:28:42.122Z,29.52
2022-12-01T00:31:44.612Z,29.07
2022-12-01T00:34:47.052Z,29.92
2022-12-01T00:37:49.490Z,29.17
2022-12-01T00:40:53.275Z,30.70
2022-12-01T00:43:55.727Z,31.08
2022-12-01T00:46:58.107Z,30.60
2022-12-01T00:50:00.507Z,28.60
2022-12-01T00:53:03.024Z,31.20
2022-12-01T00:56:05.596Z,31.48
2022-12-01T00:59:07.956Z,34.80
2022-12-01T01:02:10.763Z,34.33
2022-12-01T01:05:13.325Z,32.65
2022-12-01T01:08:15.704Z,23.83
2022-12-01T01:11:18.203Z,28.77
2022-12-01T01:14:24.169Z,29.02
2022-12-01T01:17:26.691Z,25.63
2022-12-01T01:20:29.408Z,23.58
2022-12-01T01:23:31.891Z,26.30
2022-12-01T01:26:35.527Z,21.75
2022-12-01T01:29:38.193Z,21.45
2022-12-01T01:32:40.625Z,20.57
2022-12-01T01:35:43.106Z,20.75
2022-12-01T01:38:46.611Z,18.92
2022-12-01T01:41:49.090Z,20.17
2022-12-01T01:44:57.141Z,18.90
2022-12-01T01:48:00.516Z,19.23
2022-12-01T01:51:03.757Z,18.63
2022-12-01T01:54:15.707Z,19.60
2022-12-01T01:57:30.144Z,18.92
2022-12-01T02:00:36.400Z,18.55
2022-12-01T02:03:41.007Z,18.13
2022-12-01T02:06:43.755Z,19.58
2022-12-01T02:09:46.761Z,18.13
2022-12-01T02:13:10.915Z,17.97
2022-12-01T02:16:32.537Z,17.70
2022-12-01T02:20:07.903Z,15.93
2022-12-01T02:23:35.185Z,16.92
2022-12-01T02:26:52.500Z,17.58
2022-12-01T02:30:09.153Z,15.20
2022-12-01T02:33:14.316Z,14.35
2022-12-01T02:36:22.258Z,13.83
2022-12-01T02:39:44.746Z,14.23
2022-12-01T02:43:02.554Z,13.00
2022-12-01T02:46:18.329Z,11.50
2022-12-01T02:49:25.995Z,10.85
2022-12-01T02:52:28.984Z,10.25
2022-12-01T02:55:31.429Z,10.88
2022-12-01T02:58:34.047Z,10.75
2022-12-01T03:01:59.127Z,10.07
2022-12-01T03:05:10.042Z,9.30
2022-12-01T03:08:46.153Z,9.57
2022-12-01T03:12:28.300Z,9.88
2022-12-01T03:15:43.404Z,9.98
2022-12-01T03:18:53.508Z,9.50
2022-12-01T03:22:23.183Z,9.88
2022-12-01T03:25:28.525Z,9.95
2022-12-01T03:28:38.115Z,9.45
2022-12-01T03:31:48.737Z,10.80
2022-12-01T03:35:00.219Z,10.32
2022-12-01T03:38:08.267Z,11.70
2022-12-01T03:41:18.059Z,9.77
2022-12-01T03:44:29.651Z,10.05
2022-12-01T03:47:32.920Z,9.90
2022-12-01T03:51:08.519Z,10.20
2022-12-01T03:54:29.519Z,10.40
2022-12-01T03:57:36.243Z,11.18
2022-12-01T04:00:40.160Z,11.05
2022-12-01T04:03:45.342Z,11.55
2022-12-01T04:06:51.007Z,12.20
2022-12-01T04:09:53.490Z,13.18
2022-12-01T04:12:59.540Z,23.27
2022-12-01T04:16:01.997Z,32.95
2022-12-01T04:19:07.801Z,20.52
2022-12-01T04:22:10.345Z,10.40
2022-12-01T04:25:12.879Z,15.85
2022-12-01T04:28:15.316Z,15.95
2022-12-01T04:31:18.000Z,16.23
2022-12-01T04:34:20.603Z,10.60
2022-12-01T04:37:23.083Z,15.18
2022-12-01T04:40:25.487Z,14.88
2022-12-01T04:43:27.901Z,14.60
2022-12-01T04:46:30.455Z,16.25
2022-12-01T04:49:33.740Z,15.82
2022-12-01T04:52:37.512Z,14.47
2022-12-01T04:55:40.033Z,11.82
2022-12-01T04:58:42.477Z,11.18
2022-12-01T05:01:47.024Z,8.88
2022-12-01T05:04:49.616Z,11.13
2022-12-01T05:07:52.446Z,12.15
2022-12-01T05:10:56.494Z,13.13
2022-12-01T05:13:59.803Z,11.23
2022-12-01T05:17:02.522Z,13.85
2022-12-01T05:20:31.565Z,15.80
2022-12-01T05:23:37.166Z,14.90
2022-12-01T05:26:40.171Z,17.20
2022-12-01T05:29:42.836Z,17.48
2022-12-01T05:32:45.531Z,20.17
2022-12-01T05:35:48.912Z,18.55
2022-12-01T05:38:51.629Z,16.02
2022-12-01T05:41:54.521Z,16.23
2022-12-01T05:44:56.925Z,16.07
2022-12-01T05:48:00.842Z,16.23
2022-12-01T05:51:16.573Z,16.13
2022-12-01T05:54:19.196Z,15.40
2022-12-01T05:57:21.592Z,15.77
2022-12-01T06:00:24.221Z,17.92
2022-12-01T06:03:26.869Z,17.77
2022-12-01T06:06:29.346Z,16.90
2022-12-01T06:09:32.101Z,19.27
2022-12-01T06:12:34.734Z,20.38
2022-12-01T06:15:37.466Z,20.10
2022-12-01T06:18:40.636Z,23.73
2022-12-01T06:21:43.271Z,34.83
2022-12-01T06:24:45.710Z,30.57
2022-12-01T06:27:48.990Z,53.05
2022-12-01T06:30:51.626Z,50.10
2022-12-01T06:33:54.232Z,48.00
2022-12-01T06:36:56.892Z,39.00
2022-12-01T06:39:59.654Z,38.15
2022-12-01T06:43:05.641Z,36.78
2022-12-01T06:46:08.455Z,37.50
2022-12-01T06:49:12.396Z,45.05
2022-12-01T06:52:14.940Z,39.33
2022-12-01T06:55:17.653Z,35.13
2022-12-01T06:58:20.478Z,37.22
2022-12-01T07:01:23.644Z,37.78
2022-12-01T07:04:26.338Z,33.58
2022-12-01T07:07:28.832Z,41.30
2022-12-01T07:10:31.496Z,33.75
2022-12-01T07:13:34.705Z,36.25
2022-12-01T07:16:37.253Z,29.40
2022-12-01T07:19:40.708Z,34.15
2022-12-01T07:22:43.334Z,28.80
2022-12-01T07:25:45.911Z,29.97
2022-12-01T07:28:49.034Z,30.35
2022-12-01T07:31:51.651Z,28.25
2022-12-01T07:34:54.133Z,28.52
2022-12-01T07:37:56.920Z,29.98
2022-12-01T07:41:06.990Z,35.53
2022-12-01T07:44:10.828Z,38.65
2022-12-01T07:47:14.747Z,37.17
2022-12-01T07:50:17.351Z,25.38
2022-12-01T07:53:19.912Z,21.85
2022-12-01T07:56:23.266Z,21.27
2022-12-01T07:59:25.743Z,20.92
2022-12-01T08:02:28.844Z,20.75
2022-12-01T08:05:31.341Z,20.20
2022-12-01T08:08:35.394Z,15.23
2022-12-01T08:11:38.059Z,12.63
2022-12-01T08:14:40.531Z,11.75
2022-12-01T08:17:43.033Z,12.90
2022-12-01T08:20:45.586Z,12.10
2022-12-01T08:23:49.086Z,12.95
2022-12-01T08:26:51.680Z,12.75
2022-12-01T08:29:54.130Z,15.63
2022-12-01T08:32:57.807Z,17.87
2022-12-01T08:36:02.903Z,17.15
2022-12-01T08:39:08.106Z,17.33
2022-12-01T08:42:10.572Z,17.23
2022-12-01T08:45:13.638Z,15.30
2022-12-01T08:48:16.087Z,12.38
2022-12-01T08:51:19.177Z,12.60
2022-12-01T08:54:21.930Z,12.03
2022-12-01T08:57:24.467Z,14.07
2022-12-01T09:00:28.856Z,14.32
2022-12-01T09:03:31.981Z,13.93
2022-12-01T09:06:43.671Z,13.43
2022-12-01T09:09:46.485Z,12.10
2022-12-01T09:12:48.979Z,14.07
2022-12-01T09:15:59.606Z,12.20
2022-12-01T09:19:02.828Z,11.48
2022-12-01T09:22:05.597Z,10.32
2022-12-01T09:25:14.662Z,9.85
2022-12-01T09:28:18.172Z,8.47
2022-12-01T09:31:23.447Z,8.90
2022-12-01T09:34:27.338Z,9.63
2022-12-01T09:37:29.785Z,8.82
2022-12-01T09:40:36.771Z,8.33
2022-12-01T09:43:52.578Z,9.25
2022-12-01T09:47:05.534Z,9.02
2022-12-01T09:50:18.898Z,8.98
2022-12-01T09:53:24.830Z,9.90
2022-12-01T09:56:31.114Z,10.45
2022-12-01T09:59:41.734Z,10.15
2022-12-01T10:02:52.884Z,9.45
2022-12-01T10:09:41.120Z,8.50
2022-12-01T10:12:46.941Z,9.25
2022-12-01T10:16:26.522Z,8.93
2022-12-01T10:19:45.135Z,7.77
2022-12-01T10:23:15.166Z,6.53
2022-12-01T10:26:28.892Z,7.38
2022-12-01T10:29:31.620Z,8.05
2022-12-01T10:32:58.341Z,7.30
2022-12-01T10:36:01.288Z,6.63
2022-12-01T10:39:21.348Z,7.88
2022-12-01T10:42:32.033Z,8.20
2022-12-01T10:45:40.203Z,8.35
2022-12-01T10:48:54.968Z,8.60
2022-12-01T10:51:58.692Z,8.40
2022-12-01T10:55:02.236Z,8.30
2022-12-01T10:58:16.514Z,8.90
2022-12-01T11:01:27.629Z,9.43
2022-12-01T11:04:46.532Z,10.20
2022-12-01T11:07:50.126Z,9.73
2022-12-01T11:10:52.825Z,9.73
2022-12-01T11:13:57.859Z,11.20
2022-12-01T11:17:25.741Z,10.57
2022-12-01T11:20:33.057Z,10.60
2022-12-01T11:23:37.968Z,9.05
2022-12-01T11:26:40.938Z,9.63
2022-12-01T11:29:45.964Z,9.40
2022-12-01T11:32:55.288Z,9.88
2022-12-01T11:35:58.160Z,8.90
2022-12-01T11:39:01.855Z,8.13
2022-12-01T11:42:24.649Z,8.80
2022-12-01T11:45:40.338Z,8.95
2022-12-01T11:48:58.341Z,7.93
2022-12-01T11:52:17.694Z,7.40
2022-12-01T11:55:26.243Z,7.80
2022-12-01T11:58:29.113Z,8.10
2022-12-01T12:01:53.709Z,7.75
2022-12-01T12:05:05.291Z,6.95
2022-12-01T12:08:20.249Z,7.57
2022-12-01T12:11:50.040Z,8.60
2022-12-01T12:15:02.607Z,8.13
2022-12-01T12:18:35.670Z,7.75
2022-12-01T12:22:07.280Z,7.03
2022-12-01T12:25:22.935Z,6.97
2022-12-01T12:28:35.476Z,7.33
2022-12-01T12:31:41.096Z,7.82
2022-12-01T12:34:52.900Z,8.57
2022-12-01T12:38:33.248Z,8.65
2022-12-01T12:41:43.150Z,9.20
2022-12-01T12:45:13.533Z,9.07
2022-12-01T12:49:18.572Z,9.40
2022-12-01T12:52:19.590Z,9.35
2022-12-01T12:55:45.438Z,9.63
2022-12-01T12:59:24.594Z,10.90
2022-12-01T13:02:53.187Z,9.67
2022-12-01T13:06:24.900Z,9.13
2022-12-01T13:09:39.424Z,8.93
2022-12-01T13:12:49.495Z,8.68
2022-12-01T13:15:55.412Z,10.03
2022-12-01T13:19:13.425Z,10.17
2022-12-01T13:22:19.668Z,10.18
2022-12-01T13:25:28.306Z,10.48
2022-12-01T13:28:44.153Z,9.55
2022-12-01T13:31:50.899Z,8.87
2022-12-01T13:34:53.876Z,10.45
2022-12-01T13:38:13.136Z,9.55
2022-12-01T13:41:18.680Z,12.77
2022-12-01T13:44:39.835Z,8.23
2022-12-01T13:47:55.531Z,11.57
2022-12-01T13:51:01.570Z,11.32
2022-12-01T13:54:25.901Z,10.38
2022-12-01T13:57:31.868Z,14.47
2022-12-01T14:00:35.038Z,12.05
2022-12-01T14:03:40.782Z,13.02
2022-12-01T14:06:53.205Z,13.00
2022-12-01T14:10:09.634Z,11.50
2022-12-01T14:13:19.499Z,10.10
2022-12-01T14:16:22.659Z,9.90
2022-12-01T14:19:52.278Z,22.67
2022-12-01T14:23:10.807Z,13.03
2022-12-01T14:26:17.642Z,13.93
2022-12-01T14:29:39.285Z,16.60
2022-12-01T14:32:41.963Z,13.82
2022-12-01T14:35:45.460Z,10.00
2022-12-01T14:38:50.007Z,10.93
2022-12-01T14:41:56.866Z,16.00
2022-12-01T14:45:03.371Z,22.27
2022-12-01T14:48:12.590Z,20.27
2022-12-01T14:51:29.961Z,19.40
2022-12-01T14:54:54.095Z,20.20
2022-12-01T14:58:05.996Z,22.92
2022-12-01T15:01:13.983Z,30.73
2022-12-01T15:04:16.614Z,29.50
2022-12-01T15:07:23.145Z,28.10
2022-12-01T15:10:29.913Z,26.90
2022-12-01T15:13:50.682Z,34.83
2022-12-01T15:16:53.383Z,22.85
2022-12-01T15:19:55.831Z,17.85
2022-12-01T15:22:59.003Z,30.27
2022-12-01T15:26:02.153Z,23.02
2022-12-01T15:29:17.835Z,20.73
2022-12-01T15:32:22.675Z,41.20
2022-12-01T15:35:25.529Z,44.22
2022-12-01T15:38:34.440Z,34.65
2022-12-01T15:41:40.462Z,46.53
2022-12-01T15:44:42.849Z,21.53
2022-12-01T15:47:50.361Z,22.10
2022-12-01T15:51:04.270Z,28.13
2022-12-01T15:54:12.114Z,19.65
2022-12-01T15:57:20.175Z,23.63
2022-12-01T16:00:23.168Z,20.02
2022-12-01T16:03:26.247Z,19.08
2022-12-01T16:06:32.433Z,14.07
2022-12-01T16:09:43.377Z,23.20
2022-12-01T16:12:45.930Z,22.38
2022-12-01T16:15:48.487Z,15.70
2022-12-01T16:18:59.764Z,15.57
2022-12-01T16:22:11.668Z,13.70
2022-12-01T16:25:27.761Z,16.95
2022-12-01T16:28:36.018Z,16.23
2022-12-01T16:31:58.700Z,18.83
2022-12-01T16:35:04.335Z,18.92
2022-12-01T16:38:16.415Z,20.20
2022-12-01T16:41:37.921Z,42.97
2022-12-01T16:44:42.755Z,37.00
2022-12-01T16:47:47.254Z,29.27
2022-12-01T16:50:51.857Z,26.10
2022-12-01T16:53:56.330Z,15.10
2022-12-01T16:56:59.146Z,12.50
2022-12-01T17:00:01.817Z,13.60
2022-12-01T17:03:05.204Z,12.35
2022-12-01T17:06:08.014Z,14.63
2022-12-01T17:09:10.732Z,17.45
2022-12-01T17:12:13.442Z,17.93
2022-12-01T17:15:17.146Z,26.63
2022-12-01T17:18:21.715Z,30.92
2022-12-01T17:21:24.311Z,34.90
2022-12-01T17:24:26.769Z,34.22
2022-12-01T17:27:30.025Z,37.08
2022-12-01T17:30:32.571Z,23.45
2022-12-01T17:33:36.508Z,19.25
2022-12-01T17:36:39.276Z,15.55
2022-12-01T17:39:43.317Z,15.90
2022-12-01T17:42:50.416Z,13.40
2022-12-01T17:45:53.349Z,15.13
2022-12-01T17:48:56.232Z,14.85
2022-12-01T17:51:58.791Z,14.88
2022-12-01T17:55:01.709Z,45.00
2022-12-01T17:58:04.388Z,50.95
2022-12-01T18:01:13.748Z,49.50
2022-12-01T18:04:17.231Z,55.75
2022-12-01T18:07:20.331Z,40.90
2022-12-01T18:10:22.923Z,40.25
2022-12-01T18:13:25.327Z,26.92
2022-12-01T18:16:30.935Z,24.97
2022-12-01T18:19:33.815Z,36.90
2022-12-01T18:22:36.672Z,56.45
2022-12-01T18:25:40.593Z,60.33
2022-12-01T18:28:43.848Z,55.05
2022-12-01T18:31:47.324Z,59.75
2022-12-01T18:34:50.681Z,36.13
2022-12-01T18:37:54.077Z,48.65
2022-12-01T18:41:01.356Z,63.83
2022-12-01T18:44:04.569Z,58.65
2022-12-01T18:47:07.543Z,71.93
2022-12-01T18:50:11.946Z,47.05
2022-12-01T18:53:15.532Z,46.58
2022-12-01T18:56:19.820Z,38.28
2022-12-01T18:59:22.407Z,29.38
2022-12-01T19:02:26.537Z,29.00
2022-12-01T19:05:30.859Z,25.83
2022-12-01T19:08:34.388Z,40.03
2022-12-01T19:11:38.281Z,30.17
2022-12-01T19:14:41.322Z,23.00
2022-12-01T19:17:44.122Z,22.33
2022-12-01T19:20:46.815Z,32.00
2022-12-01T19:23:49.923Z,46.25
2022-12-01T19:26:52.629Z,30.42
2022-12-01T19:29:55.441Z,24.33
2022-12-01T19:32:58.333Z,19.23
2022-12-01T19:36:09.387Z,26.88
2022-12-01T19:39:12.103Z,20.53
2022-12-01T19:42:14.861Z,18.73
2022-12-01T19:45:17.737Z,19.48
2022-12-01T19:48:20.295Z,21.52
2022-12-01T19:51:26.801Z,19.45
2022-12-01T19:54:31.930Z,14.15
2022-12-01T19:57:34.944Z,16.50
2022-12-01T20:00:38.026Z,26.50
2022-12-01T20:03:41.978Z,44.58
2022-12-01T20:06:44.830Z,45.65
2022-12-01T20:09:51.950Z,46.73
2022-12-01T20:12:56.154Z,44.58
2022-12-01T20:16:03.232Z,46.28
2022-12-01T20:19:06.904Z,36.65
2022-12-01T20:22:09.825Z,40.47
2022-12-01T20:25:12.644Z,42.17
2022-12-01T20:28:15.307Z,25.90
2022-12-01T20:31:21.494Z,28.00
2022-12-01T20:34:28.157Z,21.40
2022-12-01T20:37:31.262Z,36.30
2022-12-01T20:40:34.165Z,34.37
2022-12-01T20:43:37.338Z,35.00
2022-12-01T20:46:45.870Z,37.92
2022-12-01T20:49:49.009Z,24.45
2022-12-01T20:52:51.780Z,25.48
2022-12-01T20:55:55.672Z,25.98
2022-12-01T20:58:58.887Z,25.52
2022-12-01T21:02:01.696Z,19.43
2022-12-01T21:05:04.912Z,28.25
2022-12-01T21:08:10.450Z,32.28
2022-12-01T21:11:45.080Z,31.07
2022-12-01T21:15:01.707Z,32.13
2022-12-01T21:18:12.455Z,36.47
2022-12-01T21:21:23.624Z,34.85
2022-12-01T21:24:33.508Z,32.00
2022-12-01T21:27:37.461Z,25.33
2022-12-01T21:30:41.178Z,23.73
2022-12-01T21:33:43.828Z,20.50
2022-12-01T21:36:48.097Z,19.95
2022-12-01T21:39:52.656Z,20.45
2022-12-01T21:43:00.177Z,19.97
2022-12-01T21:46:13.747Z,21.02
2022-12-01T21:49:20.411Z,18.98
2022-12-01T21:52:34.645Z,18.92
2022-12-01T21:55:39.004Z,20.85
2022-12-01T21:58:41.608Z,20.80
2022-12-01T22:01:44.092Z,20.73
2022-12-01T22:04:46.891Z,20.70
2022-12-01T22:07:49.530Z,20.48
2022-12-01T22:11:02.754Z,19.08
2022-12-01T22:14:17.187Z,21.33
2022-12-01T22:17:21.180Z,20.92
2022-12-01T22:20:23.689Z,24.17
2022-12-01T22:23:33.945Z,25.60
2022-12-01T22:26:39.661Z,25.20
2022-12-01T22:29:44.871Z,23.85
2022-12-01T22:33:03.689Z,22.50
2022-12-01T22:36:21.801Z,21.90
2022-12-01T22:39:34.139Z,19.85
2022-12-01T22:42:37.487Z,17.80
2022-12-01T22:45:39.904Z,19.23
2022-12-01T22:48:45.860Z,16.70
2022-12-01T22:51:56.244Z,15.77
2022-12-01T22:54:58.820Z,16.27
2022-12-01T22:58:09.823Z,16.85
2022-12-01T23:01:24.959Z,17.92
2022-12-01T23:04:40.223Z,17.98
2022-12-01T23:07:43.253Z,17.53
2022-12-01T23:10:46.151Z,19.83
2022-12-01T23:13:48.580Z,22.98
2022-12-01T23:17:06.647Z,23.77
2022-12-01T23:20:34.489Z,21.13
2022-12-01T23:23:37.674Z,15.85
2022-12-01T23:26:40.133Z,17.05
2022-12-01T23:29:42.604Z,14.73
2022-12-01T23:32:48.003Z,15.93
2022-12-01T23:36:00.180Z,14.20
2022-12-01T23:39:06.984Z,14.67
2022-12-01T23:42:11.691Z,15.52
2022-12-01T23:45:21.631Z,16.48
2022-12-01T23:48:31.979Z,17.77
2022-12-01T23:51:40.187Z,17.23
2022-12-01T23:54:42.793Z,15.65
2022-12-01T23:57:45.255Z,19.80
